sensor_id;sensor_type;location;lat;lon;timestamp;pressure;altitude;pressure_sealevel;temperature;humidity
26859;BME280;14429;48.346;16.338;2023-03-25T00:00:17;98972.75;;;16.30;49.84
26859;BME280;14429;48.346;16.338;2023-03-25T00:02:44;98977.41;;;16.45;47.80
26859;BME280;14429;48.346;16.338;2023-03-25T00:05:10;98988.47;;;16.42;48.95
26859;BME280;14429;48.346;16.338;2023-03-25T00:07:35;98982.50;;;16.31;49.60
26859;BME280;14429;48.346;16.338;2023-03-25T00:10:01;98996.66;;;16.33;48.48
26859;BME280;14429;48.346;16.338;2023-03-25T00:12:28;98996.72;;;16.41;48.14
26859;BME280;14429;48.346;16.338;2023-03-25T00:14:53;98994.25;;;16.47;47.60
26859;BME280;14429;48.346;16.338;2023-03-25T00:17:20;98997.16;;;16.53;47.14
26859;BME280;14429;48.346;16.338;2023-03-25T00:19:45;99001.84;;;16.51;47.06
26859;BME280;14429;48.346;16.338;2023-03-25T00:22:10;99016.25;;;16.43;47.91
26859;BME280;14429;48.346;16.338;2023-03-25T00:24:36;99013.94;;;16.47;47.66
26859;BME280;14429;48.346;16.338;2023-03-25T00:27:02;99016.91;;;16.45;47.90
26859;BME280;14429;48.346;16.338;2023-03-25T00:29:29;99017.22;;;16.42;48.20
26859;BME280;14429;48.346;16.338;2023-03-25T00:31:54;99022.56;;;16.34;49.48
26859;BME280;14429;48.346;16.338;2023-03-25T00:34:20;99019.50;;;16.29;49.20
26859;BME280;14429;48.346;16.338;2023-03-25T00:36:45;99018.91;;;16.35;48.95
26859;BME280;14429;48.346;16.338;2023-03-25T00:39:10;99026.25;;;16.33;49.32
26859;BME280;14429;48.346;16.338;2023-03-25T00:41:36;99031.16;;;16.37;49.56
26859;BME280;14429;48.346;16.338;2023-03-25T00:44:02;99022.03;;;16.30;49.77
26859;BME280;14429;48.346;16.338;2023-03-25T00:46:31;99033.97;;;16.28;50.39
26859;BME280;14429;48.346;16.338;2023-03-25T00:48:57;99029.13;;;16.31;48.80
26859;BME280;14429;48.346;16.338;2023-03-25T00:51:24;99023.63;;;16.41;48.06
26859;BME280;14429;48.346;16.338;2023-03-25T00:53:51;99024.63;;;16.40;47.80
26859;BME280;14429;48.346;16.338;2023-03-25T00:56:17;99024.00;;;16.45;47.45
26859;BME280;14429;48.346;16.338;2023-03-25T00:58:42;99020.75;;;16.42;47.89
26859;BME280;14429;48.346;16.338;2023-03-25T01:01:09;99017.09;;;16.43;47.12
26859;BME280;14429;48.346;16.338;2023-03-25T01:03:36;99012.03;;;16.40;47.38
26859;BME280;14429;48.346;16.338;2023-03-25T01:06:01;99022.00;;;16.47;47.11
26859;BME280;14429;48.346;16.338;2023-03-25T01:08:27;99014.97;;;16.29;48.45
26859;BME280;14429;48.346;16.338;2023-03-25T01:10:53;99018.56;;;16.38;47.72
26859;BME280;14429;48.346;16.338;2023-03-25T01:13:18;99012.56;;;16.44;47.34
26859;BME280;14429;48.346;16.338;2023-03-25T01:15:44;99005.28;;;16.36;47.37
26859;BME280;14429;48.346;16.338;2023-03-25T01:18:09;99003.94;;;16.40;47.79
26859;BME280;14429;48.346;16.338;2023-03-25T01:20:37;98997.09;;;16.20;48.90
26859;BME280;14429;48.346;16.338;2023-03-25T01:23:03;98978.41;;;16.19;49.13
26859;BME280;14429;48.346;16.338;2023-03-25T01:25:28;98980.81;;;16.30;48.02
26859;BME280;14429;48.346;16.338;2023-03-25T01:27:53;98975.34;;;16.39;47.36
26859;BME280;14429;48.346;16.338;2023-03-25T01:30:19;98979.41;;;16.43;47.45
26859;BME280;14429;48.346;16.338;2023-03-25T01:32:44;98970.13;;;16.38;47.45
26859;BME280;14429;48.346;16.338;2023-03-25T01:35:10;98972.81;;;16.38;47.71
26859;BME280;14429;48.346;16.338;2023-03-25T01:37:36;98973.50;;;16.40;47.91
26859;BME280;14429;48.346;16.338;2023-03-25T01:40:02;98978.03;;;16.39;47.82
26859;BME280;14429;48.346;16.338;2023-03-25T01:42:29;98973.59;;;16.30;48.00
26859;BME280;14429;48.346;16.338;2023-03-25T01:45:13;98976.19;;;16.40;47.90
26859;BME280;14429;48.346;16.338;2023-03-25T01:47:39;98968.75;;;16.34;48.08
26859;BME280;14429;48.346;16.338;2023-03-25T01:50:05;98977.28;;;16.29;48.13
26859;BME280;14429;48.346;16.338;2023-03-25T01:52:31;98975.31;;;16.31;47.72
26859;BME280;14429;48.346;16.338;2023-03-25T01:54:58;98982.06;;;16.35;47.37
26859;BME280;14429;48.346;16.338;2023-03-25T01:57:24;98987.63;;;16.42;47.07
26859;BME280;14429;48.346;16.338;2023-03-25T01:59:51;98979.72;;;16.40;47.46
26859;BME280;14429;48.346;16.338;2023-03-25T02:02:17;98988.28;;;16.36;47.42
26859;BME280;14429;48.346;16.338;2023-03-25T02:04:47;99007.97;;;16.36;47.67
26859;BME280;14429;48.346;16.338;2023-03-25T02:07:14;99006.72;;;16.31;48.16
26859;BME280;14429;48.346;16.338;2023-03-25T02:09:40;99014.53;;;16.42;47.80
26859;BME280;14429;48.346;16.338;2023-03-25T02:12:07;99020.19;;;16.31;48.33
26859;BME280;14429;48.346;16.338;2023-03-25T02:14:34;99031.03;;;16.39;47.42
26859;BME280;14429;48.346;16.338;2023-03-25T02:17:07;99015.06;;;16.45;46.90
26859;BME280;14429;48.346;16.338;2023-03-25T02:20:02;99026.34;;;16.23;48.08
26859;BME280;14429;48.346;16.338;2023-03-25T02:22:55;99005.03;;;16.30;48.14
26859;BME280;14429;48.346;16.338;2023-03-25T02:25:56;99007.06;;;16.28;48.75
26859;BME280;14429;48.346;16.338;2023-03-25T02:28:28;99003.13;;;16.22;48.95
26859;BME280;14429;48.346;16.338;2023-03-25T02:31:29;99010.72;;;16.27;48.62
26859;BME280;14429;48.346;16.338;2023-03-25T02:34:30;99014.34;;;16.35;47.68
26859;BME280;14429;48.346;16.338;2023-03-25T02:40:02;99019.91;;;16.42;47.22
26859;BME280;14429;48.346;16.338;2023-03-25T02:42:33;99014.09;;;16.46;46.91
26859;BME280;14429;48.346;16.338;2023-03-25T02:45:04;99003.16;;;16.47;46.50
26859;BME280;14429;48.346;16.338;2023-03-25T02:47:35;98995.66;;;16.34;47.66
26859;BME280;14429;48.346;16.338;2023-03-25T02:50:04;98991.28;;;16.33;47.97
26859;BME280;14429;48.346;16.338;2023-03-25T02:52:33;98998.59;;;16.23;48.65
26859;BME280;14429;48.346;16.338;2023-03-25T02:55:01;98996.16;;;16.12;49.21
26859;BME280;14429;48.346;16.338;2023-03-25T02:57:27;98996.69;;;16.16;49.00
26859;BME280;14429;48.346;16.338;2023-03-25T02:59:56;98994.41;;;16.20;48.29
26859;BME280;14429;48.346;16.338;2023-03-25T03:02:25;98989.38;;;16.08;48.81
26859;BME280;14429;48.346;16.338;2023-03-25T03:04:52;98989.75;;;16.30;47.63
26859;BME280;14429;48.346;16.338;2023-03-25T03:07:22;99003.06;;;16.32;47.49
26859;BME280;14429;48.346;16.338;2023-03-25T03:09:55;99006.84;;;16.21;48.44
26859;BME280;14429;48.346;16.338;2023-03-25T03:12:35;99002.75;;;16.35;47.24
26859;BME280;14429;48.346;16.338;2023-03-25T03:15:17;99002.41;;;16.38;47.48
26859;BME280;14429;48.346;16.338;2023-03-25T03:17:50;99008.81;;;16.37;47.30
26859;BME280;14429;48.346;16.338;2023-03-25T03:20:26;99009.06;;;16.26;47.97
26859;BME280;14429;48.346;16.338;2023-03-25T03:23:02;99015.28;;;16.26;48.00
26859;BME280;14429;48.346;16.338;2023-03-25T03:25:32;99017.28;;;16.24;47.79
26859;BME280;14429;48.346;16.338;2023-03-25T03:28:07;99018.56;;;16.13;48.59
26859;BME280;14429;48.346;16.338;2023-03-25T03:30:41;99022.72;;;16.32;47.20
26859;BME280;14429;48.346;16.338;2023-03-25T03:33:10;99020.88;;;16.33;47.83
26859;BME280;14429;48.346;16.338;2023-03-25T03:35:42;99011.59;;;16.27;47.29
26859;BME280;14429;48.346;16.338;2023-03-25T03:38:11;99022.38;;;16.27;47.30
26859;BME280;14429;48.346;16.338;2023-03-25T03:40:40;99025.50;;;16.23;47.65
26859;BME280;14429;48.346;16.338;2023-03-25T03:43:13;99026.16;;;16.17;47.96
26859;BME280;14429;48.346;16.338;2023-03-25T03:45:43;99027.81;;;16.18;48.36
26859;BME280;14429;48.346;16.338;2023-03-25T03:48:12;99030.16;;;16.13;48.20
26859;BME280;14429;48.346;16.338;2023-03-25T03:50:42;99027.81;;;16.18;47.81
26859;BME280;14429;48.346;16.338;2023-03-25T03:53:14;99031.22;;;16.20;48.25
26859;BME280;14429;48.346;16.338;2023-03-25T03:55:42;99040.06;;;16.13;48.65
26859;BME280;14429;48.346;16.338;2023-03-25T03:58:16;99047.59;;;16.09;49.32
26859;BME280;14429;48.346;16.338;2023-03-25T04:00:49;99053.38;;;16.05;49.35
26859;BME280;14429;48.346;16.338;2023-03-25T04:03:19;99044.47;;;16.04;49.13
26859;BME280;14429;48.346;16.338;2023-03-25T04:05:51;99044.91;;;16.09;48.66
26859;BME280;14429;48.346;16.338;2023-03-25T04:08:25;99051.22;;;16.08;49.07
26859;BME280;14429;48.346;16.338;2023-03-25T04:10:54;99045.59;;;16.11;48.65
26859;BME280;14429;48.346;16.338;2023-03-25T04:13:22;99039.44;;;16.18;47.61
26859;BME280;14429;48.346;16.338;2023-03-25T04:15:48;99049.34;;;16.18;47.83
26859;BME280;14429;48.346;16.338;2023-03-25T04:18:14;99051.44;;;16.24;46.98
26859;BME280;14429;48.346;16.338;2023-03-25T04:20:39;99046.66;;;16.18;47.95
26859;BME280;14429;48.346;16.338;2023-03-25T04:23:05;99053.94;;;16.08;48.56
26859;BME280;14429;48.346;16.338;2023-03-25T04:25:30;99053.94;;;16.08;48.98
26859;BME280;14429;48.346;16.338;2023-03-25T04:27:56;99057.25;;;16.02;49.44
26859;BME280;14429;48.346;16.338;2023-03-25T04:30:23;99059.63;;;16.05;49.21
26859;BME280;14429;48.346;16.338;2023-03-25T04:32:49;99062.75;;;16.10;48.44
26859;BME280;14429;48.346;16.338;2023-03-25T04:35:15;99055.03;;;16.15;48.00
26859;BME280;14429;48.346;16.338;2023-03-25T04:37:41;99055.75;;;16.17;47.82
26859;BME280;14429;48.346;16.338;2023-03-25T04:40:07;99054.56;;;16.19;47.41
26859;BME280;14429;48.346;16.338;2023-03-25T04:42:33;99054.44;;;16.21;47.35
26859;BME280;14429;48.346;16.338;2023-03-25T04:44:58;99064.53;;;16.27;47.00
26859;BME280;14429;48.346;16.338;2023-03-25T04:47:26;99060.13;;;16.18;47.86
26859;BME280;14429;48.346;16.338;2023-03-25T04:49:52;99054.88;;;15.99;49.33
26859;BME280;14429;48.346;16.338;2023-03-25T04:52:17;99052.88;;;16.01;49.37
26859;BME280;14429;48.346;16.338;2023-03-25T04:54:42;99062.56;;;15.94;49.63
26859;BME280;14429;48.346;16.338;2023-03-25T04:57:08;99065.63;;;15.99;49.20
26859;BME280;14429;48.346;16.338;2023-03-25T04:59:33;99067.84;;;16.04;48.57
26859;BME280;14429;48.346;16.338;2023-03-25T05:01:59;99068.69;;;16.04;48.33
26859;BME280;14429;48.346;16.338;2023-03-25T05:04:26;99072.94;;;16.07;48.05
26859;BME280;14429;48.346;16.338;2023-03-25T05:06:51;99075.19;;;16.11;48.24
26859;BME280;14429;48.346;16.338;2023-03-25T05:09:18;99082.16;;;16.21;47.29
26859;BME280;14429;48.346;16.338;2023-03-25T05:11:44;99087.22;;;16.07;47.40
26859;BME280;14429;48.346;16.338;2023-03-25T05:14:12;99091.31;;;16.11;47.76
26859;BME280;14429;48.346;16.338;2023-03-25T05:16:38;99090.53;;;16.01;48.66
26859;BME280;14429;48.346;16.338;2023-03-25T05:19:04;99096.28;;;15.89;49.58
26859;BME280;14429;48.346;16.338;2023-03-25T05:21:31;99095.59;;;15.87;49.58
26859;BME280;14429;48.346;16.338;2023-03-25T05:23:57;99079.81;;;15.58;51.14
26859;BME280;14429;48.346;16.338;2023-03-25T05:26:22;99091.72;;;15.90;49.17
26859;BME280;14429;48.346;16.338;2023-03-25T05:28:47;99084.28;;;16.01;48.32
26859;BME280;14429;48.346;16.338;2023-03-25T05:31:13;99082.31;;;16.03;48.04
26859;BME280;14429;48.346;16.338;2023-03-25T05:33:38;99073.50;;;16.10;47.49
26859;BME280;14429;48.346;16.338;2023-03-25T05:36:04;99086.66;;;16.13;47.29
26859;BME280;14429;48.346;16.338;2023-03-25T05:38:31;99083.94;;;16.13;47.19
26859;BME280;14429;48.346;16.338;2023-03-25T05:40:57;99094.28;;;15.91;48.53
26859;BME280;14429;48.346;16.338;2023-03-25T05:43:22;99084.38;;;15.91;48.69
26859;BME280;14429;48.346;16.338;2023-03-25T05:45:48;99074.75;;;15.89;49.49
26859;BME280;14429;48.346;16.338;2023-03-25T05:48:13;99071.16;;;15.81;49.69
26859;BME280;14429;48.346;16.338;2023-03-25T05:50:39;99077.53;;;15.80;49.57
26859;BME280;14429;48.346;16.338;2023-03-25T05:53:04;99085.94;;;15.94;48.61
26859;BME280;14429;48.346;16.338;2023-03-25T05:55:31;99092.53;;;15.99;48.24
26859;BME280;14429;48.346;16.338;2023-03-25T05:57:56;99092.91;;;16.04;48.00
26859;BME280;14429;48.346;16.338;2023-03-25T06:00:22;99100.41;;;16.10;47.54
26859;BME280;14429;48.346;16.338;2023-03-25T06:02:48;99097.84;;;16.09;47.46
26859;BME280;14429;48.346;16.338;2023-03-25T06:05:15;99108.59;;;16.09;47.17
26859;BME280;14429;48.346;16.338;2023-03-25T06:07:40;99103.28;;;15.99;48.29
26859;BME280;14429;48.346;16.338;2023-03-25T06:10:07;99110.34;;;16.00;48.69
26859;BME280;14429;48.346;16.338;2023-03-25T06:12:34;99107.88;;;15.90;49.73
26859;BME280;14429;48.346;16.338;2023-03-25T06:15:00;99108.28;;;15.94;49.26
26859;BME280;14429;48.346;16.338;2023-03-25T06:17:25;99120.34;;;15.91;49.16
26859;BME280;14429;48.346;16.338;2023-03-25T06:19:50;99126.78;;;15.97;48.36
26859;BME280;14429;48.346;16.338;2023-03-25T06:22:17;99134.41;;;16.02;48.20
26859;BME280;14429;48.346;16.338;2023-03-25T06:24:42;99123.88;;;16.08;47.79
26859;BME280;14429;48.346;16.338;2023-03-25T06:27:11;99139.06;;;16.09;47.58
26859;BME280;14429;48.346;16.338;2023-03-25T06:29:38;99143.44;;;16.10;47.30
26859;BME280;14429;48.346;16.338;2023-03-25T06:32:04;99142.91;;;15.97;47.68
26859;BME280;14429;48.346;16.338;2023-03-25T06:34:30;99148.00;;;16.00;48.14
26859;BME280;14429;48.346;16.338;2023-03-25T06:36:56;99144.53;;;15.91;48.93
26859;BME280;14429;48.346;16.338;2023-03-25T06:39:21;99145.13;;;15.85;49.33
26859;BME280;14429;48.346;16.338;2023-03-25T06:41:46;99146.44;;;15.81;49.61
26859;BME280;14429;48.346;16.338;2023-03-25T06:44:12;99148.13;;;15.82;49.40
26859;BME280;14429;48.346;16.338;2023-03-25T06:46:39;99145.94;;;15.94;48.38
26859;BME280;14429;48.346;16.338;2023-03-25T06:49:04;99146.00;;;16.02;48.04
26859;BME280;14429;48.346;16.338;2023-03-25T06:51:30;99151.38;;;16.02;47.92
26859;BME280;14429;48.346;16.338;2023-03-25T06:53:55;99144.31;;;16.01;47.59
26859;BME280;14429;48.346;16.338;2023-03-25T06:56:20;99148.69;;;16.02;47.33
26859;BME280;14429;48.346;16.338;2023-03-25T06:58:46;99142.59;;;16.10;47.02
26859;BME280;14429;48.346;16.338;2023-03-25T07:01:11;99126.72;;;16.07;47.64
26859;BME280;14429;48.346;16.338;2023-03-25T07:03:38;99134.09;;;15.88;48.86
26859;BME280;14429;48.346;16.338;2023-03-25T07:06:05;99133.31;;;15.95;49.06
26859;BME280;14429;48.346;16.338;2023-03-25T07:08:31;99144.13;;;15.86;49.34
26859;BME280;14429;48.346;16.338;2023-03-25T07:10:59;99140.34;;;15.79;49.27
26859;BME280;14429;48.346;16.338;2023-03-25T07:13:25;99136.78;;;15.88;48.57
26859;BME280;14429;48.346;16.338;2023-03-25T07:15:53;99133.06;;;15.89;48.45
26859;BME280;14429;48.346;16.338;2023-03-25T07:18:19;99140.09;;;15.99;47.76
26859;BME280;14429;48.346;16.338;2023-03-25T07:20:45;99149.91;;;16.08;47.53
26859;BME280;14429;48.346;16.338;2023-03-25T07:23:11;99131.25;;;16.06;47.42
26859;BME280;14429;48.346;16.338;2023-03-25T07:25:37;99125.88;;;16.06;47.05
26859;BME280;14429;48.346;16.338;2023-03-25T07:28:03;99123.66;;;16.02;47.58
26859;BME280;14429;48.346;16.338;2023-03-25T07:30:28;99140.75;;;15.84;48.69
26859;BME280;14429;48.346;16.338;2023-03-25T07:32:55;99130.75;;;15.93;48.98
26859;BME280;14429;48.346;16.338;2023-03-25T07:35:20;99128.91;;;15.77;49.39
26859;BME280;14429;48.346;16.338;2023-03-25T07:37:47;99129.84;;;15.85;49.23
26859;BME280;14429;48.346;16.338;2023-03-25T07:40:12;99129.38;;;15.90;48.39
26859;BME280;14429;48.346;16.338;2023-03-25T07:42:38;99119.72;;;15.96;48.15
26859;BME280;14429;48.346;16.338;2023-03-25T07:45:04;99127.19;;;16.02;47.74
26859;BME280;14429;48.346;16.338;2023-03-25T07:47:30;99124.75;;;16.09;47.21
26859;BME280;14429;48.346;16.338;2023-03-25T07:49:55;99123.59;;;16.11;47.13
26859;BME280;14429;48.346;16.338;2023-03-25T07:52:21;99115.13;;;16.06;47.16
26859;BME280;14429;48.346;16.338;2023-03-25T07:54:48;99109.38;;;16.01;47.61
26859;BME280;14429;48.346;16.338;2023-03-25T07:57:13;99117.09;;;16.04;48.23
26859;BME280;14429;48.346;16.338;2023-03-25T07:59:38;99106.19;;;15.89;48.98
26859;BME280;14429;48.346;16.338;2023-03-25T08:02:04;99103.25;;;15.82;49.25
26859;BME280;14429;48.346;16.338;2023-03-25T08:04:29;99112.19;;;15.83;49.14
26859;BME280;14429;48.346;16.338;2023-03-25T08:06:55;99086.06;;;15.92;48.30
26859;BME280;14429;48.346;16.338;2023-03-25T08:09:20;99090.84;;;15.98;47.65
26859;BME280;14429;48.346;16.338;2023-03-25T08:11:47;99085.66;;;16.05;47.49
26859;BME280;14429;48.346;16.338;2023-03-25T08:14:13;99086.78;;;16.12;46.89
26859;BME280;14429;48.346;16.338;2023-03-25T08:16:38;99089.34;;;16.13;47.26
26859;BME280;14429;48.346;16.338;2023-03-25T08:19:04;99106.03;;;16.07;47.56
26859;BME280;14429;48.346;16.338;2023-03-25T08:21:29;99095.50;;;15.96;47.99
26859;BME280;14429;48.346;16.338;2023-03-25T08:23:56;99093.06;;;16.03;47.52
26859;BME280;14429;48.346;16.338;2023-03-25T08:26:21;99091.44;;;15.92;47.43
26859;BME280;14429;48.346;16.338;2023-03-25T08:28:48;99099.88;;;15.97;47.73
26859;BME280;14429;48.346;16.338;2023-03-25T08:31:13;99102.91;;;15.94;47.92
26859;BME280;14429;48.346;16.338;2023-03-25T08:33:39;99110.19;;;16.02;47.40
26859;BME280;14429;48.346;16.338;2023-03-25T08:36:05;99107.28;;;15.95;48.15
26859;BME280;14429;48.346;16.338;2023-03-25T08:38:30;99113.97;;;15.91;48.92
26859;BME280;14429;48.346;16.338;2023-03-25T08:40:56;99127.09;;;15.94;48.94
26859;BME280;14429;48.346;16.338;2023-03-25T08:43:21;99133.06;;;15.89;49.24
26859;BME280;14429;48.346;16.338;2023-03-25T08:45:48;99125.75;;;15.81;48.22
26859;BME280;14429;48.346;16.338;2023-03-25T08:48:14;99130.09;;;15.91;48.28
26859;BME280;14429;48.346;16.338;2023-03-25T08:50:39;99132.16;;;15.97;47.94
26859;BME280;14429;48.346;16.338;2023-03-25T08:53:04;99119.13;;;16.02;47.66
26859;BME280;14429;48.346;16.338;2023-03-25T08:55:30;99120.78;;;16.03;47.44
26859;BME280;14429;48.346;16.338;2023-03-25T08:57:55;99116.53;;;16.10;46.95
26859;BME280;14429;48.346;16.338;2023-03-25T09:00:21;99104.66;;;16.03;47.34
26859;BME280;14429;48.346;16.338;2023-03-25T09:02:47;99105.59;;;15.94;48.00
26859;BME280;14429;48.346;16.338;2023-03-25T09:05:13;99114.50;;;15.95;47.73
26859;BME280;14429;48.346;16.338;2023-03-25T09:07:38;99110.97;;;15.94;47.84
26859;BME280;14429;48.346;16.338;2023-03-25T09:10:05;99117.72;;;15.98;48.17
26859;BME280;14429;48.346;16.338;2023-03-25T09:12:31;99114.97;;;15.91;48.35
26859;BME280;14429;48.346;16.338;2023-03-25T09:14:57;99112.34;;;15.98;47.19
26859;BME280;14429;48.346;16.338;2023-03-25T09:17:22;99119.03;;;15.94;48.22
26859;BME280;14429;48.346;16.338;2023-03-25T09:19:49;99125.72;;;15.91;47.81
26859;BME280;14429;48.346;16.338;2023-03-25T09:22:15;99120.56;;;15.97;47.97
26859;BME280;14429;48.346;16.338;2023-03-25T09:24:40;99144.66;;;15.89;48.88
26859;BME280;14429;48.346;16.338;2023-03-25T09:27:06;99128.97;;;15.67;49.59
26859;BME280;14429;48.346;16.338;2023-03-25T09:29:32;99126.91;;;15.79;49.59
26859;BME280;14429;48.346;16.338;2023-03-25T09:31:57;99120.47;;;15.72;49.80
26859;BME280;14429;48.346;16.338;2023-03-25T09:34:23;99122.63;;;15.86;49.05
26859;BME280;14429;48.346;16.338;2023-03-25T09:36:50;99124.00;;;15.90;48.94
26859;BME280;14429;48.346;16.338;2023-03-25T09:39:15;99121.84;;;15.76;49.52
26859;BME280;14429;48.346;16.338;2023-03-25T09:41:59;99127.16;;;15.85;49.09
26859;BME280;14429;48.346;16.338;2023-03-25T09:44:30;99127.69;;;15.89;48.36
26859;BME280;14429;48.346;16.338;2023-03-25T09:46:58;99127.69;;;15.89;48.43
26859;BME280;14429;48.346;16.338;2023-03-25T09:49:30;99132.47;;;15.94;48.73
26859;BME280;14429;48.346;16.338;2023-03-25T09:51:59;99124.00;;;15.90;48.43
26859;BME280;14429;48.346;16.338;2023-03-25T09:54:28;99114.97;;;15.91;48.85
26859;BME280;14429;48.346;16.338;2023-03-25T09:56:56;99131.59;;;15.77;49.09
26859;BME280;14429;48.346;16.338;2023-03-25T09:59:35;99131.94;;;15.91;48.17
26859;BME280;14429;48.346;16.338;2023-03-25T10:02:07;99136.28;;;15.75;49.24
26859;BME280;14429;48.346;16.338;2023-03-25T10:04:53;99144.03;;;15.78;49.04
26859;BME280;14429;48.346;16.338;2023-03-25T10:07:35;99132.06;;;15.90;47.93
26859;BME280;14429;48.346;16.338;2023-03-25T10:10:10;99123.03;;;15.91;45.46
26859;BME280;14429;48.346;16.338;2023-03-25T10:12:43;99127.09;;;15.94;48.19
26859;BME280;14429;48.346;16.338;2023-03-25T10:15:20;99129.88;;;16.02;46.63
26859;BME280;14429;48.346;16.338;2023-03-25T10:18:00;99123.41;;;15.95;46.61
26859;BME280;14429;48.346;16.338;2023-03-25T10:20:40;99120.63;;;15.88;48.10
26859;BME280;14429;48.346;16.338;2023-03-25T10:23:16;99110.97;;;15.94;48.09
26859;BME280;14429;48.346;16.338;2023-03-25T10:25:49;99112.94;;;15.92;48.28
26859;BME280;14429;48.346;16.338;2023-03-25T10:28:18;99102.50;;;15.90;47.75
26859;BME280;14429;48.346;16.338;2023-03-25T10:30:46;99105.09;;;15.82;48.77
26859;BME280;14429;48.346;16.338;2023-03-25T10:33:17;99107.56;;;15.92;48.20
26859;BME280;14429;48.346;16.338;2023-03-25T10:35:46;99103.50;;;15.89;47.17
26859;BME280;14429;48.346;16.338;2023-03-25T10:38:17;99101.44;;;15.83;48.72
26859;BME280;14429;48.346;16.338;2023-03-25T10:40:44;99097.44;;;15.87;48.90
26859;BME280;14429;48.346;16.338;2023-03-25T10:43:14;99099.44;;;15.85;48.57
26859;BME280;14429;48.346;16.338;2023-03-25T10:45:44;99107.94;;;15.80;48.77
26859;BME280;14429;48.346;16.338;2023-03-25T10:48:11;99100.25;;;15.85;48.62
26859;BME280;14429;48.346;16.338;2023-03-25T10:50:39;99101.91;;;15.95;47.80
26859;BME280;14429;48.346;16.338;2023-03-25T10:53:05;99118.28;;;16.02;46.09
26859;BME280;14429;48.346;16.338;2023-03-25T10:55:34;99115.13;;;16.06;47.84
26859;BME280;14429;48.346;16.338;2023-03-25T10:58:00;99112.06;;;16.01;48.16
26859;BME280;14429;48.346;16.338;2023-03-25T11:00:26;99127.19;;;16.02;46.97
26859;BME280;14429;48.346;16.338;2023-03-25T11:02:51;99140.94;;;15.99;45.28
26859;BME280;14429;48.346;16.338;2023-03-25T11:05:19;99131.41;;;15.88;48.04
26859;BME280;14429;48.346;16.338;2023-03-25T11:07:48;99118.78;;;15.88;46.65
26859;BME280;14429;48.346;16.338;2023-03-25T11:10:18;99116.72;;;15.99;45.09
26859;BME280;14429;48.346;16.338;2023-03-25T11:12:48;99122.81;;;16.01;43.93
26859;BME280;14429;48.346;16.338;2023-03-25T11:15:15;99135.78;;;16.06;46.67
26859;BME280;14429;48.346;16.338;2023-03-25T11:17:43;99140.16;;;16.16;48.45
26859;BME280;14429;48.346;16.338;2023-03-25T11:20:17;99134.63;;;16.08;47.11
26859;BME280;14429;48.346;16.338;2023-03-25T11:22:46;99144.53;;;16.08;48.07
26859;BME280;14429;48.346;16.338;2023-03-25T11:25:18;99138.63;;;16.04;48.10
26859;BME280;14429;48.346;16.338;2023-03-25T11:27:51;99136.41;;;16.00;48.38
26859;BME280;14429;48.346;16.338;2023-03-25T11:30:20;99136.09;;;16.03;47.96
26859;BME280;14429;48.346;16.338;2023-03-25T11:32:55;99142.00;;;16.06;47.58
26859;BME280;14429;48.346;16.338;2023-03-25T11:35:24;99127.66;;;15.98;48.17
26859;BME280;14429;48.346;16.338;2023-03-25T11:37:54;99133.69;;;16.00;42.17
26859;BME280;14429;48.346;16.338;2023-03-25T11:40:20;99129.25;;;16.08;47.13
26859;BME280;14429;48.346;16.338;2023-03-25T11:42:46;99125.69;;;16.17;46.69
26859;BME280;14429;48.346;16.338;2023-03-25T11:45:22;99118.63;;;16.16;44.48
26859;BME280;14429;48.346;16.338;2023-03-25T11:47:48;99117.38;;;16.11;47.58
26859;BME280;14429;48.346;16.338;2023-03-25T11:50:20;99096.94;;;16.18;46.94
26859;BME280;14429;48.346;16.338;2023-03-25T11:52:47;99106.16;;;16.15;47.21
26859;BME280;14429;48.346;16.338;2023-03-25T11:55:18;99100.75;;;16.15;46.89
26859;BME280;14429;48.346;16.338;2023-03-25T11:57:45;99114.56;;;16.03;47.97
26859;BME280;14429;48.346;16.338;2023-03-25T12:00:22;99099.03;;;15.97;48.04
26859;BME280;14429;48.346;16.338;2023-03-25T12:02:58;99095.59;;;16.04;44.86
26859;BME280;14429;48.346;16.338;2023-03-25T12:05:24;99090.38;;;16.03;46.47
26859;BME280;14429;48.346;16.338;2023-03-25T12:07:50;99089.66;;;16.01;46.86
26859;BME280;14429;48.346;16.338;2023-03-25T12:10:18;99088.69;;;16.02;48.00
26859;BME280;14429;48.346;16.338;2023-03-25T12:12:50;99086.38;;;16.07;47.55
26859;BME280;14429;48.346;16.338;2023-03-25T12:15:27;99086.84;;;16.02;47.42
26859;BME280;14429;48.346;16.338;2023-03-25T12:18:07;99093.53;;;15.98;48.08
26859;BME280;14429;48.346;16.338;2023-03-25T12:20:49;99094.66;;;15.96;47.64
26859;BME280;14429;48.346;16.338;2023-03-25T12:23:23;99070.22;;;15.90;47.92
26859;BME280;14429;48.346;16.338;2023-03-25T12:25:57;99073.53;;;16.01;47.77
26859;BME280;14429;48.346;16.338;2023-03-25T12:28:40;99071.00;;;15.99;47.82
26859;BME280;14429;48.346;16.338;2023-03-25T12:31:19;99067.09;;;16.11;47.44
26859;BME280;14429;48.346;16.338;2023-03-25T12:33:56;99063.63;;;16.01;47.36
26859;BME280;14429;48.346;16.338;2023-03-25T12:36:34;99054.66;;;16.10;47.03
26859;BME280;14429;48.346;16.338;2023-03-25T12:39:17;99049.72;;;16.06;46.54
26859;BME280;14429;48.346;16.338;2023-03-25T12:41:49;99049.97;;;16.12;47.06
26859;BME280;14429;48.346;16.338;2023-03-25T12:44:28;99037.88;;;15.99;42.96
26859;BME280;14429;48.346;16.338;2023-03-25T12:47:13;99037.13;;;16.06;43.69
26859;BME280;14429;48.346;16.338;2023-03-25T12:49:50;99042.50;;;16.06;46.49
26859;BME280;14429;48.346;16.338;2023-03-25T12:52:25;99052.25;;;16.07;46.86
26859;BME280;14429;48.346;16.338;2023-03-25T12:55:02;99057.34;;;16.10;44.37
26859;BME280;14429;48.346;16.338;2023-03-25T12:57:40;99052.88;;;16.01;47.10
26859;BME280;14429;48.346;16.338;2023-03-25T13:00:19;99046.63;;;16.01;46.57